createdAt,value
2018-09-14T00:00:36.507Z,47.00
2018-09-14T00:05:39.785Z,47.30
2018-09-14T00:10:43.017Z,47.40
2018-09-14T00:15:46.212Z,47.30
2018-09-14T00:20:49.397Z,47.30
2018-09-14T00:25:53.304Z,47.50
2018-09-14T00:30:56.540Z,47.10
2018-09-14T00:35:59.787Z,47.20
2018-09-14T00:41:03.017Z,47.60
2018-09-14T00:46:06.209Z,47.60
2018-09-14T00:51:09.526Z,47.20
2018-09-14T00:56:12.710Z,47.30
2018-09-14T01:01:15.943Z,47.20
2018-09-14T01:06:19.300Z,47.30
2018-09-14T01:11:22.758Z,47.90
2018-09-14T01:16:25.943Z,47.60
2018-09-14T01:21:29.288Z,47.60
2018-09-14T01:26:32.544Z,47.30
2018-09-14T01:31:35.743Z,47.30
2018-09-14T01:36:39.072Z,47.50
2018-09-14T01:41:42.375Z,47.50
2018-09-14T01:46:45.575Z,47.40
2018-09-14T01:51:49.300Z,47.10
2018-09-14T01:56:52.706Z,47.10
2018-09-14T02:01:55.992Z,47.10
2018-09-14T02:06:59.195Z,47.10
2018-09-14T02:12:02.349Z,47.20
2018-09-14T02:17:05.811Z,47.20
2018-09-14T02:22:08.993Z,47.30
2018-09-14T02:27:17.093Z,47.30
2018-09-14T02:32:20.345Z,47.10
2018-09-14T02:37:23.679Z,47.30
2018-09-14T02:42:26.853Z,47.20
2018-09-14T02:47:30.107Z,47.20
2018-09-14T02:52:33.544Z,47.10
2018-09-14T02:57:36.999Z,47.10
2018-09-14T03:02:40.443Z,47.10
2018-09-14T03:07:43.766Z,47.10
2018-09-14T03:12:47.181Z,47.10
2018-09-14T03:17:50.487Z,47.10
2018-09-14T03:22:53.670Z,46.90
2018-09-14T03:27:56.902Z,47.10
2018-09-14T03:33:00.145Z,46.90
2018-09-14T03:38:03.361Z,47.00
2018-09-14T03:43:06.870Z,47.10
2018-09-14T03:48:10.077Z,47.00
2018-09-14T03:53:13.395Z,47.10
2018-09-14T03:58:16.738Z,47.10
2018-09-14T04:03:20.021Z,47.00
2018-09-14T04:08:23.247Z,46.90
2018-09-14T04:13:26.444Z,47.00
2018-09-14T04:18:30.608Z,47.10
2018-09-14T04:23:35.785Z,46.90
2018-09-14T04:28:38.955Z,47.00
2018-09-14T04:33:42.303Z,47.00
2018-09-14T04:38:45.552Z,46.90
2018-09-14T04:43:48.818Z,47.50
2018-09-14T04:48:52.312Z,46.80
2018-09-14T04:53:57.233Z,46.80
2018-09-14T04:59:00.598Z,46.80
2018-09-14T05:04:04.257Z,46.80
2018-09-14T05:09:07.947Z,46.90
2018-09-14T05:14:11.234Z,47.00
2018-09-14T05:19:14.621Z,47.10
2018-09-14T05:24:17.842Z,47.10
2018-09-14T05:29:22.028Z,47.10
2018-09-14T05:34:25.301Z,47.10
2018-09-14T05:39:29.201Z,46.90
2018-09-14T05:44:32.714Z,47.10
2018-09-14T05:49:36.261Z,47.10
2018-09-14T05:54:39.531Z,47.60
2018-09-14T05:59:45.938Z,47.30
2018-09-14T06:04:49.585Z,47.10
2018-09-14T06:09:52.931Z,47.30
2018-09-14T06:14:56.185Z,47.10
2018-09-14T06:20:00.708Z,47.20
2018-09-14T06:25:04.934Z,47.10
2018-09-14T06:30:08.424Z,47.00
2018-09-14T06:35:12.064Z,47.10
2018-09-14T06:40:15.896Z,46.90
2018-09-14T06:45:19.685Z,46.90
2018-09-14T06:50:22.972Z,46.80
2018-09-14T06:55:26.786Z,47.00
2018-09-14T07:00:30.157Z,46.80
2018-09-14T07:05:33.593Z,46.90
2018-09-14T07:10:37.186Z,46.90
2018-09-14T07:15:40.539Z,46.90
2018-09-14T07:20:44.659Z,46.90
2018-09-14T07:25:47.861Z,46.90
2018-09-14T07:30:51.105Z,47.00
2018-09-14T07:35:54.346Z,47.00
2018-09-14T07:40:57.559Z,46.90
2018-09-14T07:46:00.860Z,47.00
2018-09-14T07:51:04.288Z,47.00
2018-09-14T07:56:07.572Z,47.00
2018-09-14T08:01:11.401Z,46.80
2018-09-14T08:06:20.878Z,46.80
2018-09-14T08:11:24.392Z,46.80
2018-09-14T08:16:28.139Z,46.80
2018-09-14T08:21:31.713Z,46.70
2018-09-14T08:26:35.706Z,46.80
2018-09-14T08:31:40.753Z,46.70
2018-09-14T08:36:44.770Z,46.70
2018-09-14T08:41:48.742Z,46.80
2018-09-14T08:46:52.390Z,46.70
2018-09-14T08:51:55.775Z,46.50
2018-09-14T08:56:59.398Z,46.50
2018-09-14T09:02:03.401Z,46.00
2018-09-14T09:07:07.216Z,46.60
2018-09-14T09:12:10.594Z,46.20
2018-09-14T09:17:14.030Z,46.00
2018-09-14T09:22:17.346Z,46.00
2018-09-14T09:27:21.226Z,45.90
2018-09-14T09:32:24.996Z,45.50
2018-09-14T09:37:28.458Z,45.80
2018-09-14T09:42:32.208Z,45.30
2018-09-14T09:47:35.399Z,45.40
2018-09-14T09:52:39.729Z,45.60
2018-09-14T09:57:43.802Z,45.70
2018-09-14T10:02:52.585Z,45.50
2018-09-14T10:07:55.756Z,45.50
2018-09-14T10:12:59.504Z,45.60
2018-09-14T10:18:02.954Z,45.40
2018-09-14T10:23:06.242Z,45.60
2018-09-14T10:28:09.746Z,45.50
2018-09-14T10:33:13.072Z,45.50
2018-09-14T10:38:16.280Z,45.50
2018-09-14T10:43:19.658Z,45.60
2018-09-14T10:48:22.870Z,45.40
2018-09-14T10:53:26.142Z,44.90
2018-09-14T10:58:33.754Z,45.00
2018-09-14T11:03:37.893Z,44.80
2018-09-14T11:08:42.998Z,44.80
2018-09-14T11:13:46.424Z,44.90
2018-09-14T11:18:50.270Z,44.70
2018-09-14T11:23:53.860Z,44.70
2018-09-14T11:28:57.222Z,44.70
2018-09-14T11:34:00.682Z,44.50
2018-09-14T11:39:06.270Z,44.60
2018-09-14T11:44:09.839Z,44.60
2018-09-14T11:49:13.806Z,44.40
2018-09-14T11:54:17.379Z,44.60
2018-09-14T11:59:21.627Z,44.50
2018-09-14T12:04:25.950Z,44.40
2018-09-14T12:09:29.216Z,44.40
2018-09-14T12:14:32.589Z,44.40
2018-09-14T12:19:36.354Z,44.40
2018-09-14T12:24:40.891Z,44.20
2018-09-14T12:29:45.520Z,44.20
2018-09-14T12:34:48.932Z,44.40
2018-09-14T12:39:53.341Z,44.20
2018-09-14T12:44:56.715Z,44.40
2018-09-14T12:50:00.310Z,44.20
2018-09-14T12:55:03.588Z,44.40
2018-09-14T13:00:07.227Z,44.30
2018-09-14T13:05:10.652Z,44.20
2018-09-14T13:10:14.421Z,44.00
2018-09-14T13:15:17.857Z,44.20
2018-09-14T13:20:21.279Z,43.80
2018-09-14T13:25:24.919Z,44.00
2018-09-14T13:30:28.697Z,44.10
2018-09-14T13:35:32.281Z,43.90
2018-09-14T13:40:35.676Z,44.40
2018-09-14T13:45:39.287Z,43.70
2018-09-14T13:50:45.861Z,43.90
2018-09-14T13:55:49.590Z,44.00
2018-09-14T14:00:53.272Z,43.60
2018-09-14T14:05:56.887Z,43.60
2018-09-14T14:11:00.188Z,43.60
2018-09-14T14:16:03.856Z,43.30
2018-09-14T14:21:07.309Z,43.10
2018-09-14T14:26:10.898Z,43.00
2018-09-14T14:31:14.405Z,43.00
2018-09-14T14:36:17.754Z,44.10
2018-09-14T14:41:21.301Z,44.10
2018-09-14T14:46:24.453Z,44.10
2018-09-14T14:51:27.755Z,44.10
2018-09-14T14:56:32.166Z,44.20
2018-09-14T15:01:46.346Z,44.10
2018-09-14T15:06:49.682Z,44.00
2018-09-14T15:11:53.340Z,44.00
2018-09-14T15:16:59.136Z,44.00
2018-09-14T15:22:02.872Z,43.90
2018-09-14T15:27:06.211Z,44.00
2018-09-14T15:32:11.699Z,44.00
2018-09-14T15:37:15.420Z,44.00
2018-09-14T15:42:19.476Z,44.10
2018-09-14T15:47:23.001Z,44.20
2018-09-14T15:52:27.429Z,44.10
2018-09-14T15:57:31.593Z,44.20
2018-09-14T16:02:35.004Z,44.20
2018-09-14T16:07:38.323Z,44.20
2018-09-14T16:12:41.732Z,44.30
2018-09-14T16:17:45.806Z,44.30
2018-09-14T16:22:49.144Z,44.40
2018-09-14T16:27:54.889Z,44.40
2018-09-14T16:32:58.525Z,44.40
2018-09-14T16:38:02.455Z,44.40
2018-09-14T16:43:06.210Z,44.40
2018-09-14T16:48:09.537Z,44.50
2018-09-14T16:53:12.777Z,44.70
2018-09-14T16:58:17.546Z,44.60
2018-09-14T17:03:21.431Z,44.60
2018-09-14T17:08:25.676Z,44.70
2018-09-14T17:13:29.120Z,44.80
2018-09-14T17:18:33.291Z,44.80
2018-09-14T17:23:36.592Z,44.80
2018-09-14T17:28:40.694Z,45.50
2018-09-14T17:33:44.875Z,44.90
2018-09-14T17:38:48.532Z,45.00
2018-09-14T17:43:56.125Z,45.00
2018-09-14T17:48:59.365Z,44.80
2018-09-14T17:54:04.068Z,44.80
2018-09-14T17:59:08.607Z,44.90
2018-09-14T18:04:14.328Z,45.00
2018-09-14T18:09:18.821Z,45.00
2018-09-14T18:14:22.434Z,45.00
2018-09-14T18:19:25.689Z,45.60
2018-09-14T18:24:29.062Z,45.10
2018-09-14T18:29:32.505Z,45.00
2018-09-14T18:34:37.152Z,45.00
2018-09-14T18:39:40.812Z,44.90
2018-09-14T18:44:44.044Z,45.00
2018-09-14T18:49:47.301Z,45.00
2018-09-14T18:54:52.861Z,45.00
2018-09-14T18:59:56.895Z,45.00
2018-09-14T19:05:01.046Z,45.20
2018-09-14T19:10:05.362Z,45.00
2018-09-14T19:15:09.198Z,45.00
2018-09-14T19:20:13.015Z,44.90
2018-09-14T19:25:17.042Z,44.90
2018-09-14T19:30:20.520Z,44.90
2018-09-14T19:35:23.876Z,44.90
2018-09-14T19:40:27.881Z,44.90
2018-09-14T19:45:31.728Z,44.90
2018-09-14T19:50:35.951Z,45.00
2018-09-14T19:55:40.299Z,45.00
2018-09-14T20:00:44.817Z,45.00
2018-09-14T20:05:53.966Z,45.10
2018-09-14T20:10:57.699Z,45.00
2018-09-14T20:16:01.115Z,45.00
2018-09-14T20:21:05.214Z,45.00
2018-09-14T20:26:08.753Z,45.20
2018-09-14T20:31:12.607Z,45.20
2018-09-14T20:36:15.859Z,45.20
2018-09-14T20:41:20.009Z,45.20
2018-09-14T20:46:23.277Z,45.10
2018-09-14T20:51:26.532Z,45.30
2018-09-14T20:56:29.935Z,45.20
2018-09-14T21:01:33.220Z,45.30
2018-09-14T21:06:36.600Z,45.30
2018-09-14T21:11:40.217Z,45.30
2018-09-14T21:16:43.666Z,45.30
2018-09-14T21:21:46.889Z,45.40
2018-09-14T21:26:50.329Z,45.40
2018-09-14T21:31:54.144Z,45.30
2018-09-14T21:36:57.466Z,45.90
2018-09-14T21:42:00.761Z,45.30
2018-09-14T21:47:04.356Z,45.20
2018-09-14T21:52:08.725Z,45.30
2018-09-14T21:57:12.036Z,45.20
2018-09-14T22:02:15.480Z,45.40
2018-09-14T22:07:18.780Z,46.10
2018-09-14T22:12:22.090Z,45.50
2018-09-14T22:17:25.531Z,45.50
2018-09-14T22:22:28.885Z,45.50
2018-09-14T22:27:33.996Z,45.60
2018-09-14T22:32:37.209Z,45.70
2018-09-14T22:37:41.126Z,45.70
2018-09-14T22:42:44.421Z,45.70
2018-09-14T22:47:47.629Z,45.90
2018-09-14T22:52:51.003Z,45.90
2018-09-14T22:57:54.369Z,45.90
2018-09-14T23:02:58.992Z,45.80
2018-09-14T23:08:02.301Z,45.90
2018-09-14T23:13:05.941Z,46.00
2018-09-14T23:18:09.695Z,46.00
2018-09-14T23:23:13.476Z,45.80
2018-09-14T23:28:17.146Z,45.90
2018-09-14T23:33:20.575Z,46.00
2018-09-14T23:38:24.308Z,46.00
2018-09-14T23:43:27.780Z,45.90
2018-09-14T23:48:31.335Z,45.90
2018-09-14T23:53:34.918Z,46.00
2018-09-14T23:58:38.154Z,46.00
